Time;durP1;ratioP1;P1;durP2;ratioP2;P2;SDS_P1;SDS_P2;PMS_P1;PMS_P2;Temp;Humidity;BMP_temperature;BMP_pressure;BME280_temperature;BME280_humidity;BME280_pressure;Samples;Min_cycle;Max_cycle;Signal;HPM_P1;HPM_P2
2023/08/27 00:00:44;;;;;;;9.17;7.17;;;;;;;16.94;81.37;100590.50;6062235;23;20923;-64
2023/08/27 00:03:14;;;;;;;8.63;6.60;;;;;;;17.25;81.12;100597.25;6064393;23;20416;-66
2023/08/27 00:05:44;;;;;;;10.23;6.17;;;;;;;17.46;81.15;100609.28;6063715;23;20434;-67
2023/08/27 00:08:16;;;;;;;7.57;6.03;;;;;;;17.32;81.39;100619.78;6063948;23;20388;-65
2023/08/27 00:10:46;;;;;;;9.87;7.70;;;;;;;17.28;80.50;100612.34;6063919;23;20731;-64
2023/08/27 00:13:15;;;;;;;7.53;6.73;;;;;;;17.30;81.50;100604.69;6063696;23;20621;-67
2023/08/27 00:15:48;;;;;;;22.07;19.70;;;;;;;17.26;80.85;100604.38;6063191;23;20907;-64
2023/08/27 00:18:17;;;;;;;10.40;9.30;;;;;;;17.19;81.38;100603.72;6065253;23;20839;-66
2023/08/27 00:20:47;;;;;;;10.10;9.10;;;;;;;17.26;82.74;100595.34;6066151;23;20393;-63
2023/08/27 00:23:18;;;;;;;9.80;8.73;;;;;;;17.22;81.23;100572.31;6066701;23;20398;-65
2023/08/27 00:25:47;;;;;;;9.73;8.13;;;;;;;17.33;83.44;100565.91;6065538;23;20355;-67
2023/08/27 00:28:16;;;;;;;12.63;9.97;;;;;;;17.51;80.99;100557.38;6066279;23;20683;-67
2023/08/27 00:30:46;;;;;;;11.07;9.97;;;;;;;17.37;81.50;100561.59;6063677;23;20406;-65
2023/08/27 00:33:16;;;;;;;10.30;9.03;;;;;;;17.46;82.33;100571.00;6063909;23;20439;-66
2023/08/27 00:35:53;;;;;;;14.10;10.70;;;;;;;17.25;82.66;100580.00;6066143;23;20430;-65
2023/08/27 00:38:24;;;;;;;12.90;10.60;;;;;;;17.24;83.27;100586.53;6040594;23;20379;-65
2023/08/27 00:40:53;;;;;;;9.50;8.60;;;;;;;17.08;83.48;100582.81;6065925;23;20387;-65
2023/08/27 00:43:22;;;;;;;10.10;7.87;;;;;;;17.12;83.90;100574.91;6063304;23;20470;-64
2023/08/27 00:45:51;;;;;;;10.10;9.10;;;;;;;17.43;82.10;100579.69;6064754;23;20395;-67
2023/08/27 00:48:20;;;;;;;12.83;10.10;;;;;;;17.64;80.84;100578.06;6063493;23;20395;-66
2023/08/27 00:50:50;;;;;;;14.97;10.40;;;;;;;17.65;80.35;100585.19;6064404;23;20443;-67
2023/08/27 00:53:19;;;;;;;12.77;10.03;;;;;;;17.64;80.78;100589.84;6062669;23;20440;-64
2023/08/27 00:55:51;;;;;;;11.33;9.03;;;;;;;17.39;82.16;100586.75;6066282;23;20420;-61
2023/08/27 00:58:20;;;;;;;10.93;9.40;;;;;;;17.18;83.13;100587.59;6064618;23;20432;-64
2023/08/27 01:00:49;;;;;;;11.07;9.97;;;;;;;17.22;83.61;100570.41;6064647;23;20491;-66
2023/08/27 01:03:18;;;;;;;10.70;9.70;;;;;;;17.10;84.51;100577.06;6064952;23;20685;-61
2023/08/27 01:05:47;;;;;;;13.17;10.10;;;;;;;17.07;85.08;100583.06;6038673;23;20398;-66
2023/08/27 01:08:27;;;;;;;10.13;8.93;;;;;;;17.12;84.76;100574.91;6038988;23;20394;-66
2023/08/27 01:11:04;;;;;;;11.40;10.20;;;;;;;17.15;84.78;100580.69;6064141;23;20412;-65
2023/08/27 01:13:42;;;;;;;11.07;9.33;;;;;;;17.28;84.18;100566.66;6062359;23;20485;-65
2023/08/27 01:16:12;;;;;;;12.27;9.50;;;;;;;17.32;84.21;100575.19;6039094;23;20717;-64
2023/08/27 01:18:42;;;;;;;10.83;9.80;;;;;;;17.16;84.39;100581.53;6063443;23;20394;-64
2023/08/27 01:21:21;;;;;;;12.47;10.70;;;;;;;17.18;85.11;100591.16;6065128;23;20951;-66
2023/08/27 01:23:51;;;;;;;12.90;10.43;;;;;;;16.98;85.28;100581.84;6039694;23;20405;-66
2023/08/27 01:26:33;;;;;;;11.20;9.97;;;;;;;17.14;85.24;100584.50;6065301;23;20430;-64
2023/08/27 01:29:14;;;;;;;9.00;8.10;;;;;;;17.11;85.26;100576.81;6063520;23;20439;-66
2023/08/27 01:31:59;;;;;;;14.13;10.80;;;;;;;16.89;84.71;100563.09;6038990;23;20483;-64
2023/08/27 01:34:31;;;;;;;15.30;11.37;;;;;;;16.62;85.75;100556.69;6065489;23;20726;-65
2023/08/27 01:37:03;;;;;;;14.40;10.47;;;;;;;16.76;86.04;100554.44;6064381;23;20362;-65
2023/08/27 01:39:32;;;;;;;11.27;10.07;;;;;;;16.83;87.32;100550.47;6040201;23;20371;-66
2023/08/27 01:42:01;;;;;;;10.80;9.67;;;;;;;17.08;86.02;100562.84;6064814;23;20751;-66
2023/08/27 01:44:31;;;;;;;11.60;10.03;;;;;;;17.13;87.43;100599.28;6062987;23;20383;-64
2023/08/27 01:47:00;;;;;;;11.67;9.13;;;;;;;17.56;85.38;100600.38;6065052;23;20475;-65
2023/08/27 01:49:29;;;;;;;10.20;7.90;;;;;;;17.63;83.63;100610.06;6063353;23;20784;-67
2023/08/27 01:52:00;;;;;;;11.40;10.20;;;;;;;17.58;82.97;100579.03;6064120;23;20387;-68
2023/08/27 01:54:32;;;;;;;14.60;10.50;;;;;;;17.23;84.81;100549.38;6063063;23;20494;-67
2023/08/27 01:57:02;;;;;;;17.20;12.60;;;;;;;17.14;84.85;100546.22;6065050;23;20448;-68
2023/08/27 01:59:32;;;;;;;10.97;9.93;;;;;;;17.15;86.30;100579.88;6039774;23;20421;-64
2023/08/27 02:02:01;;;;;;;9.67;8.70;;;;;;;17.39;86.23;100573.06;6038756;23;20430;-67
2023/08/27 02:04:32;;;;;;;11.87;9.93;;;;;;;17.32;85.15;100570.56;6064511;23;20947;-66
2023/08/27 02:07:03;;;;;;;10.97;9.40;;;;;;;17.16;85.98;100560.47;6039183;23;20394;-66
2023/08/27 02:09:32;;;;;;;11.33;9.50;;;;;;;17.26;86.08;100548.84;6064952;23;20883;-67
2023/08/27 02:12:04;;;;;;;13.30;11.03;;;;;;;17.33;85.00;100533.09;6064632;23;20732;-66
2023/08/27 02:14:33;;;;;;;12.33;10.50;;;;;;;17.21;85.36;100535.13;6062555;23;20422;-66
2023/08/27 02:17:03;;;;;;;13.33;11.40;;;;;;;16.97;86.35;100542.72;6039072;23;20390;-67
2023/08/27 02:19:33;;;;;;;13.27;10.47;;;;;;;16.68;88.48;100546.69;6062851;23;20653;-66
2023/08/27 02:22:04;;;;;;;12.13;10.80;;;;;;;16.76;89.96;100552.53;6065014;23;20424;-65
2023/08/27 02:24:33;;;;;;;11.87;10.60;;;;;;;16.77;88.10;100535.06;6038812;23;20403;-63
2023/08/27 02:27:02;;;;;;;12.83;10.57;;;;;;;16.38;89.48;100503.31;6039001;23;20892;-68
2023/08/27 02:29:32;;;;;;;14.13;11.63;;;;;;;16.26;89.63;100521.69;6062748;23;20464;-66
2023/08/27 02:32:02;;;;;;;11.80;10.70;;;;;;;16.33;89.36;100544.19;6038724;23;20443;-67
2023/08/27 02:34:31;;;;;;;12.70;10.90;;;;;;;16.17;89.77;100545.03;6038617;23;20414;-65
2023/08/27 02:37:00;;;;;;;12.30;11.10;;;;;;;16.19;90.29;100559.25;6064470;23;20387;-65
2023/08/27 02:39:31;;;;;;;13.33;10.63;;;;;;;16.22;89.84;100564.19;6038987;23;20416;-66
2023/08/27 02:42:00;;;;;;;12.50;11.20;;;;;;;16.20;90.05;100566.38;6065018;23;20780;-67
2023/08/27 02:44:29;;;;;;;12.60;10.77;;;;;;;16.20;89.91;100555.44;6063359;23;20499;-65
2023/08/27 02:46:58;;;;;;;12.83;11.57;;;;;;;16.12;89.87;100558.59;6064463;23;20707;-67
2023/08/27 02:49:27;;;;;;;12.17;11.07;;;;;;;16.11;90.14;100552.28;6055637;23;20423;-66
2023/08/27 02:51:56;;;;;;;14.70;10.60;;;;;;;15.95;90.91;100543.00;6062008;23;20483;-65
2023/08/27 02:54:25;;;;;;;12.23;10.93;;;;;;;15.92;91.04;100538.06;6064160;23;20428;-65
2023/08/27 02:56:56;;;;;;;11.67;10.57;;;;;;;15.99;91.18;100533.25;6063060;23;20469;-65
2023/08/27 02:59:25;;;;;;;13.33;11.93;;;;;;;15.92;91.64;100532.59;6087307;23;20416;-65
2023/08/27 03:01:54;;;;;;;13.03;11.63;;;;;;;16.07;91.92;100534.75;6086327;23;20493;-65
2023/08/27 03:04:24;;;;;;;12.17;10.50;;;;;;;16.01;91.67;100531.13;6062049;23;20897;-64
2023/08/27 03:06:53;;;;;;;11.97;9.83;;;;;;;16.04;92.74;100538.81;6062616;23;20409;-65
2023/08/27 03:09:22;;;;;;;14.10;12.33;;;;;;;16.04;92.47;100555.19;6063002;23;20387;-63
2023/08/27 03:11:51;;;;;;;14.03;11.43;;;;;;;16.40;92.36;100572.16;6064039;23;20390;-66
2023/08/27 03:14:21;;;;;;;11.30;10.20;;;;;;;16.31;91.58;100585.41;6086268;23;20410;-67
2023/08/27 03:16:51;;;;;;;12.90;11.70;;;;;;;16.25;92.11;100575.47;6064918;23;20693;-65
2023/08/27 03:19:20;;;;;;;19.00;11.00;;;;;;;16.09;92.08;100544.34;6087671;23;20458;-66
2023/08/27 03:21:49;;;;;;;13.20;11.30;;;;;;;16.05;92.84;100548.66;6063549;23;20398;-65
2023/08/27 03:24:18;;;;;;;13.03;11.77;;;;;;;15.98;93.19;100536.22;6087054;23;20747;-67
2023/08/27 03:26:47;;;;;;;13.67;10.73;;;;;;;15.91;93.22;100530.09;6062414;23;20917;-64
2023/08/27 03:29:16;;;;;;;13.50;11.87;;;;;;;15.95;93.77;100543.00;6086527;23;20390;-66
2023/08/27 03:31:47;;;;;;;15.77;13.67;;;;;;;15.90;93.40;100545.66;6062579;23;20411;-67
2023/08/27 03:34:17;;;;;;;16.10;14.40;;;;;;;15.98;93.26;100553.41;6062013;23;20803;-66
2023/08/27 03:36:47;;;;;;;16.83;15.03;;;;;;;15.74;93.45;100540.97;6062439;23;20414;-66
2023/08/27 03:39:16;;;;;;;14.93;13.47;;;;;;;15.59;94.84;100551.59;6063949;23;20367;-66
2023/08/27 03:41:45;;;;;;;14.87;13.37;;;;;;;15.63;94.90;100545.44;6063873;23;20805;-67
2023/08/27 03:44:14;;;;;;;15.97;14.27;;;;;;;15.65;95.36;100531.53;6061636;23;20411;-68
2023/08/27 03:46:43;;;;;;;15.23;13.93;;;;;;;15.63;95.85;100533.69;6062304;23;20383;-66
2023/08/27 03:49:14;;;;;;;16.80;15.00;;;;;;;15.50;95.88;100542.09;6062132;23;20394;-68
2023/08/27 03:51:45;;;;;;;15.27;13.67;;;;;;;15.54;95.55;100532.44;6061705;23;20715;-64
2023/08/27 03:54:14;;;;;;;16.57;14.87;;;;;;;15.44;96.50;100524.00;6063452;23;20892;-67
2023/08/27 03:56:43;;;;;;;15.33;13.73;;;;;;;15.38;96.55;100492.25;6061653;23;20756;-65
2023/08/27 03:59:12;;;;;;;16.37;14.73;;;;;;;15.36;96.71;100486.22;6064031;23;20389;-65
2023/08/27 04:01:42;;;;;;;16.70;13.70;;;;;;;15.36;97.21;100500.69;6063722;23;20909;-64
2023/08/27 04:04:13;;;;;;;16.13;14.63;;;;;;;15.73;95.56;100492.13;6063750;23;20411;-65
2023/08/27 04:06:47;;;;;;;15.73;14.23;;;;;;;15.64;95.01;100491.69;6064075;23;20352;-64
2023/08/27 04:09:20;;;;;;;13.63;12.43;;;;;;;15.57;94.99;100474.66;6062693;23;20461;-66
2023/08/27 04:11:52;;;;;;;17.00;15.20;;;;;;;15.54;96.23;100480.63;6063869;23;20480;-67
2023/08/27 04:14:24;;;;;;;13.83;12.50;;;;;;;15.61;95.61;100511.28;6061993;23;20828;-66
2023/08/27 04:16:54;;;;;;;15.00;13.67;;;;;;;15.67;95.29;100518.50;6062200;23;20851;-65
2023/08/27 04:19:29;;;;;;;15.80;14.03;;;;;;;15.64;96.16;100508.03;6064524;23;20364;-64
2023/08/27 04:22:03;;;;;;;14.83;12.87;;;;;;;15.69;95.40;100510.03;6063918;23;20500;-66
2023/08/27 04:24:35;;;;;;;18.87;14.47;;;;;;;15.71;95.35;100513.38;6062358;23;20387;-64
2023/08/27 04:27:09;;;;;;;14.77;13.10;;;;;;;15.66;94.53;100503.19;6063093;23;20471;-64
2023/08/27 04:29:44;;;;;;;15.47;13.27;;;;;;;15.63;94.66;100500.97;6063722;23;20347;-65
2023/08/27 04:32:19;;;;;;;13.60;12.27;;;;;;;15.58;94.88;100506.31;6063993;23;20371;-66
2023/08/27 04:34:55;;;;;;;14.00;12.67;;;;;;;15.57;95.22;100507.38;6063400;23;20454;-67
2023/08/27 04:37:29;;;;;;;14.27;12.90;;;;;;;15.56;95.18;100511.19;6063694;23;20626;-64
2023/08/27 04:40:03;;;;;;;14.43;11.77;;;;;;;15.78;94.35;100514.84;6063432;23;20381;-63
2023/08/27 04:42:36;;;;;;;13.83;11.50;;;;;;;16.37;90.17;100515.31;6064171;23;20377;-64
2023/08/27 04:45:12;;;;;;;12.03;10.93;;;;;;;16.16;90.27;100527.00;6063489;23;20383;-66
2023/08/27 04:47:46;;;;;;;13.50;11.80;;;;;;;16.13;91.30;100528.28;6063164;23;20395;-63
2023/08/27 04:50:23;;;;;;;17.63;11.70;;;;;;;16.17;91.40;100532.19;6063078;23;20426;-64
2023/08/27 04:52:55;;;;;;;14.27;12.87;;;;;;;16.44;92.14;100530.47;6061297;23;20436;-67
2023/08/27 04:55:30;;;;;;;14.30;11.53;;;;;;;16.70;89.91;100537.16;6037852;23;20436;-65
2023/08/27 04:58:08;;;;;;;13.30;11.90;;;;;;;17.02;87.26;100529.13;6063565;23;20676;-66
2023/08/27 05:00:46;;;;;;;12.40;11.30;;;;;;;17.09;86.39;100526.22;6060881;23;20661;-67
2023/08/27 05:03:20;;;;;;;12.80;11.47;;;;;;;16.92;86.15;100520.78;6062802;23;20423;-62
2023/08/27 05:05:57;;;;;;;12.70;11.50;;;;;;;16.78;87.39;100525.81;6065552;23;20817;-64
2023/08/27 05:08:32;;;;;;;12.73;11.43;;;;;;;16.89;87.13;100526.78;6064228;23;20407;-67
2023/08/27 05:11:05;;;;;;;14.40;11.87;;;;;;;16.80;88.81;100523.63;6062628;23;20422;-61
2023/08/27 05:13:37;;;;;;;12.83;10.47;;;;;;;16.75;89.30;100529.03;6061542;23;20412;-66
2023/08/27 05:18:57;;;;;;;13.60;12.20;;;;;;;16.83;88.87;100531.34;6069038;23;20738;-64
2023/08/27 05:21:33;;;;;;;12.93;11.60;;;;;;;16.86;88.16;100538.19;6040862;23;20886;-65
2023/08/27 05:24:06;;;;;;;13.03;11.67;;;;;;;16.97;87.84;100539.16;6063867;23;20370;-64
2023/08/27 05:26:37;;;;;;;15.50;10.27;;;;;;;16.97;87.44;100518.13;6066378;23;20457;-63
2023/08/27 05:29:12;;;;;;;14.40;12.90;;;;;;;17.03;86.91;100500.72;6042042;23;20596;-63
2023/08/27 05:31:44;;;;;;;16.57;13.00;;;;;;;17.13;85.61;100491.81;6042305;23;20457;-64
2023/08/27 05:34:15;;;;;;;12.57;11.30;;;;;;;17.20;85.55;100506.13;6065186;23;20923;-65
2023/08/27 05:36:45;;;;;;;14.87;11.13;;;;;;;17.20;84.97;100517.06;6065508;23;20379;-65
2023/08/27 05:39:16;;;;;;;13.47;12.17;;;;;;;17.09;85.54;100523.50;6065518;23;20439;-65
2023/08/27 05:41:46;;;;;;;12.30;10.90;;;;;;;17.12;85.74;100531.16;6064760;23;20419;-67
2023/08/27 05:44:15;;;;;;;13.93;10.10;;;;;;;17.23;85.42;100530.22;6039023;23;20728;-66
2023/08/27 05:46:47;;;;;;;11.70;10.50;;;;;;;17.55;84.03;100536.63;6063089;23;20446;-68
2023/08/27 05:49:23;;;;;;;11.90;10.67;;;;;;;17.62;83.52;100537.25;6062551;23;20465;-67
2023/08/27 05:51:56;;;;;;;11.13;10.10;;;;;;;17.83;82.73;100543.78;6062865;23;20405;-64
2023/08/27 05:54:27;;;;;;;13.47;12.00;;;;;;;17.89;81.99;100529.06;6063585;23;20851;-65
2023/08/27 05:56:57;;;;;;;13.60;11.23;;;;;;;17.81;81.09;100508.44;6040236;23;20386;-66
2023/08/27 05:59:27;;;;;;;12.73;11.50;;;;;;;17.81;81.55;100519.41;6039828;23;20442;-65
2023/08/27 06:01:59;;;;;;;12.50;9.50;;;;;;;17.57;82.48;100512.56;6061924;23;20403;-66
2023/08/27 06:04:30;;;;;;;12.67;11.57;;;;;;;17.53;83.27;100497.75;6062995;23;21050;-67
2023/08/27 06:07:01;;;;;;;13.20;11.90;;;;;;;17.70;82.62;100495.78;6062873;23;20391;-65
2023/08/27 06:09:30;;;;;;;12.00;10.53;;;;;;;17.87;82.15;100494.81;6063104;23;20419;-67
2023/08/27 06:11:59;;;;;;;13.13;11.03;;;;;;;18.08;81.62;100507.63;6038361;23;20918;-65
2023/08/27 06:14:28;;;;;;;13.70;11.63;;;;;;;18.19;81.31;100514.84;6037926;23;20498;-64
2023/08/27 06:16:57;;;;;;;12.67;11.47;;;;;;;18.26;80.74;100504.47;6038364;23;20405;-65
2023/08/27 06:19:29;;;;;;;11.73;10.63;;;;;;;18.22;80.58;100498.69;6038927;23;20752;-64
2023/08/27 06:22:18;;;;;;;16.70;13.07;;;;;;;18.31;80.07;100511.91;6037735;23;20413;-65
2023/08/27 06:24:49;;;;;;;14.50;11.50;;;;;;;18.44;79.60;100515.03;6037563;23;20424;-65
2023/08/27 06:27:19;;;;;;;12.33;11.10;;;;;;;18.54;79.01;100511.56;6038174;23;20530;-62
2023/08/27 06:29:49;;;;;;;11.47;10.20;;;;;;;18.67;78.48;100506.44;6037711;23;20390;-65
2023/08/27 06:32:20;;;;;;;11.60;10.50;;;;;;;18.88;77.23;100521.06;6062154;23;20408;-63
2023/08/27 06:34:51;;;;;;;13.07;11.10;;;;;;;19.08;76.39;100528.59;6062463;23;20399;-62
2023/08/27 06:37:23;;;;;;;11.93;10.83;;;;;;;19.19;75.71;100516.56;6063430;23;20435;-63
2023/08/27 06:39:53;;;;;;;11.07;10.07;;;;;;;19.41;75.59;100519.16;6037422;23;20383;-65
2023/08/27 06:42:24;;;;;;;13.37;9.43;;;;;;;19.68;73.36;100532.69;6066377;23;20409;-61
2023/08/27 06:44:55;;;;;;;12.20;10.73;;;;;;;19.87;71.40;100531.91;6065492;23;20412;-65
2023/08/27 06:47:26;;;;;;;9.70;8.80;;;;;;;19.84;71.47;100526.97;6064110;23;20351;-65
2023/08/27 06:49:59;;;;;;;8.90;8.10;;;;;;;19.99;70.52;100525.34;6060593;23;20420;-62
2023/08/27 06:52:31;;;;;;;13.43;8.77;;;;;;;20.16;69.51;100528.63;6055105;23;20452;-81
2023/08/27 06:55:28;;;;;;;9.70;8.70;;;;;;;20.48;67.54;100520.16;6057528;23;20392;-83
2023/08/27 06:57:58;;;;;;;7.60;6.23;;;;;;;20.70;64.00;100512.41;6045689;23;20401;-81
2023/08/27 07:00:29;;;;;;;7.80;5.93;;;;;;;20.79;63.18;100524.47;6040177;23;20426;-81
2023/08/27 07:03:01;;;;;;;8.00;6.67;;;;;;;20.71;63.11;100530.56;6015783;23;20438;-82
2023/08/27 07:05:30;;;;;;;6.77;5.87;;;;;;;20.83;64.28;100525.56;6019447;23;20399;-82
2023/08/27 07:08:01;;;;;;;7.63;5.40;;;;;;;20.75;62.26;100532.47;6018916;23;20456;-81
2023/08/27 07:10:31;;;;;;;6.63;5.47;;;;;;;20.42;66.29;100526.75;6016225;23;20396;-82
2023/08/27 07:13:01;;;;;;;8.23;6.23;;;;;;;20.31;63.46;100524.00;6016807;23;20396;-80
2023/08/27 07:15:30;;;;;;;7.43;5.17;;;;;;;20.25;62.66;100514.06;6019541;23;20469;-81
2023/08/27 07:18:01;;;;;;;6.83;5.70;;;;;;;20.41;61.87;100525.09;6016345;23;20947;-80
2023/08/27 07:20:31;;;;;;;6.90;4.90;;;;;;;20.43;61.81;100529.19;6018984;23;20442;-79
2023/08/27 07:23:04;;;;;;;4.83;4.33;;;;;;;20.72;59.72;100534.97;6014455;23;21057;-81
2023/08/27 07:25:35;;;;;;;7.60;4.50;;;;;;;20.78;59.17;100540.16;6013377;23;20377;-81
2023/08/27 07:28:05;;;;;;;7.00;4.83;;;;;;;20.78;58.21;100531.06;6017663;23;20434;-83
2023/08/27 07:30:34;;;;;;;5.13;4.20;;;;;;;21.00;57.76;100534.34;6035066;23;20398;-83
2023/08/27 07:33:06;;;;;;;8.33;4.30;;;;;;;21.09;57.61;100531.81;6035366;23;20422;-83
2023/08/27 07:35:39;;;;;;;6.60;4.33;;;;;;;21.05;57.04;100526.06;6033965;23;20438;-85
2023/08/27 07:38:10;;;;;;;4.70;4.23;;;;;;;20.86;58.50;100527.78;6034164;23;20403;-85
2023/08/27 07:40:39;;;;;;;4.57;3.80;;;;;;;20.99;58.55;100538.19;6036131;23;20389;-83
2023/08/27 07:43:08;;;;;;;6.43;4.67;;;;;;;21.27;57.08;100519.41;6034958;23;20428;-82
2023/08/27 07:45:38;;;;;;;11.47;5.30;;;;;;;21.35;56.88;100514.13;6034069;23;20438;-82
2023/08/27 07:48:08;;;;;;;5.83;4.20;;;;;;;21.48;56.02;100504.44;6033193;23;20379;-82
2023/08/27 07:50:41;;;;;;;6.80;4.13;;;;;;;21.47;55.43;100505.53;6032484;23;20369;-81
2023/08/27 07:53:12;;;;;;;5.77;4.93;;;;;;;21.49;55.56;100503.34;6045028;23;20438;-81
2023/08/27 07:55:42;;;;;;;6.70;4.00;;;;;;;21.43;55.55;100512.72;6030587;23;20446;-82
2023/08/27 07:58:11;;;;;;;4.70;4.20;;;;;;;21.60;55.14;100507.66;6033587;23;20394;-83
2023/08/27 08:00:41;;;;;;;4.03;3.70;;;;;;;21.78;54.64;100495.19;6023831;23;20386;-80
2023/08/27 08:03:10;;;;;;;7.17;4.00;;;;;;;22.01;55.36;100498.06;6012973;23;20465;-79
2023/08/27 08:05:40;;;;;;;4.33;3.50;;;;;;;22.36;54.41;100501.63;6014191;23;20422;-81
2023/08/27 08:08:10;;;;;;;5.43;3.90;;;;;;;22.30;52.77;100516.56;6015454;23;20390;-81
2023/08/27 08:10:40;;;;;;;6.93;3.30;;;;;;;22.55;52.04;100513.59;6011759;23;20425;-81
2023/08/27 08:13:09;;;;;;;4.10;3.70;;;;;;;22.48;50.99;100515.84;6014310;23;20418;-79
2023/08/27 08:15:38;;;;;;;7.43;4.00;;;;;;;22.82;51.44;100522.16;6012284;23;20438;-80
2023/08/27 08:18:08;;;;;;;5.97;3.90;;;;;;;22.88;50.25;100521.00;6013510;23;20667;-80
2023/08/27 08:20:40;;;;;;;3.97;3.50;;;;;;;22.95;50.63;100510.41;6014273;23;20490;-81
2023/08/27 08:23:09;;;;;;;5.00;3.80;;;;;;;;;;6015159;23;20991;-82
2023/08/27 08:25:42;;;;;;;5.83;3.50;;;;;;;22.91;49.54;100501.09;6014621;23;20402;-81
2023/08/27 08:28:11;;;;;;;8.13;4.33;;;;;;;23.07;49.10;100506.41;6013791;23;20391;-78
2023/08/27 08:30:48;;;;;;;4.70;3.73;;;;;;;22.91;49.35;100503.00;6009716;23;20446;-80
2023/08/27 08:33:17;;;;;;;3.50;3.20;;;;;;;22.87;48.81;100501.97;6010984;23;20468;-81
2023/08/27 08:35:47;;;;;;;7.10;3.97;;;;;;;23.06;49.37;100505.59;6012885;23;20399;-78
2023/08/27 08:38:20;;;;;;;7.50;4.23;;;;;;;23.31;49.45;100501.69;6019333;23;20369;-81
2023/08/27 08:40:57;;;;;;;4.40;2.90;;;;;;;23.28;48.01;100494.03;6035041;23;20370;-80
2023/08/27 08:43:31;;;;;;;5.40;3.20;;;;;;;23.33;47.85;100499.47;6019762;23;20397;-80
2023/08/27 08:46:04;;;;;;;4.37;3.00;;;;;;;23.42;47.79;100478.38;6015976;23;20383;-80
2023/08/27 08:48:40;;;;;;;5.70;3.43;;;;;;;22.96;46.69;100467.91;6017152;23;20406;-82
2023/08/27 08:51:12;;;;;;;6.97;3.17;;;;;;;23.03;47.58;100452.94;6018160;23;20461;-80
2023/08/27 08:53:43;;;;;;;3.70;2.43;;;;;;;23.10;50.74;100468.00;6042211;23;20410;-80
2023/08/27 08:56:21;;;;;;;4.10;2.83;;;;;;;23.47;48.26;100461.75;6023679;23;20445;-81
2023/08/27 08:58:55;;;;;;;5.40;3.10;;;;;;;23.03;48.88;100461.22;6021529;23;20406;-81
2023/08/27 09:01:25;;;;;;;5.33;2.70;;;;;;;23.09;48.34;100465.56;6048835;23;20488;-81
2023/08/27 09:03:57;;;;;;;4.43;2.97;;;;;;;23.02;49.77;100478.88;6050484;23;20767;-81
2023/08/27 09:06:27;;;;;;;7.33;3.30;;;;;;;23.35;46.75;100456.63;6018162;23;20408;-80
2023/08/27 09:08:58;;;;;;;4.63;3.20;;;;;;;23.18;47.41;100463.78;6043334;23;20389;-81
2023/08/27 09:11:30;;;;;;;4.03;2.57;;;;;;;23.17;46.48;100457.44;6017735;23;20436;-81
2023/08/27 09:14:03;;;;;;;5.07;2.80;;;;;;;23.28;45.63;100447.09;6042260;23;20361;-81
2023/08/27 09:16:33;;;;;;;3.80;3.13;;;;;;;23.45;47.12;100464.00;6042131;23;20921;-80
2023/08/27 09:19:02;;;;;;;4.83;3.43;;;;;;;23.90;48.61;100475.47;6041583;23;20760;-82
2023/08/27 09:21:41;;;;;;;5.73;3.00;;;;;;;23.92;45.55;100464.94;6042977;23;20414;-80
2023/08/27 09:24:11;;;;;;;5.47;3.40;;;;;;;23.72;45.94;100474.38;6041956;23;20385;-79
2023/08/27 09:26:42;;;;;;;5.40;3.20;;;;;;;23.75;45.93;100462.72;6042638;23;20391;-80
2023/08/27 09:29:13;;;;;;;4.93;3.33;;;;;;;23.45;46.15;100452.94;6017452;23;20415;-80
2023/08/27 09:31:43;;;;;;;6.03;3.47;;;;;;;23.48;46.84;100440.50;6041250;23;20438;-82
2023/08/27 09:34:16;;;;;;;5.67;3.47;;;;;;;23.33;47.18;100435.97;6041028;23;20389;-82
2023/08/27 09:36:45;;;;;;;3.33;3.03;;;;;;;23.29;47.91;100426.63;6041341;23;20509;-80
2023/08/27 09:39:14;;;;;;;5.80;3.50;;;;;;;23.28;47.58;100430.53;6041756;23;20916;-80
2023/08/27 09:41:46;;;;;;;3.80;3.50;;;;;;;23.23;47.81;100420.38;6041197;23;20420;-80
2023/08/27 09:44:20;;;;;;;4.60;3.60;;;;;;;22.95;48.58;100411.06;6042051;23;20465;-80
2023/08/27 09:51:26;;;;;;;3.47;3.00;;;;;;;23.65;46.89;100447.13;6043438;23;20754;-81
2023/08/27 09:54:20;;;;;;;4.53;2.70;;;;;;;23.76;47.83;100443.09;6018693;23;20421;-81
2023/08/27 10:10:06;;;;;;;5.00;3.73;;;;;;;23.86;47.31;100446.81;5951676;24;20419;-80
2023/08/27 10:22:41;;;;;;;7.47;3.00;;;;;;;23.61;45.75;100421.22;5982145;23;20466;-81
2023/08/27 10:25:16;;;;;;;5.50;2.67;;;;;;;23.28;45.65;100422.25;6004100;24;20427;-80
2023/08/27 10:31:14;;;;;;;6.33;3.20;;;;;;;24.10;44.73;100419.88;5932950;23;20426;-80
2023/08/27 10:34:17;;;;;;;4.50;3.43;;;;;;;24.30;45.08;100425.06;5986916;24;20389;-79
2023/08/27 10:36:58;;;;;;;5.10;3.80;;;;;;;24.28;45.10;100434.78;5987764;24;20487;-79
2023/08/27 10:40:20;;;;;;;4.07;3.07;;;;;;;24.17;45.75;100439.66;5988849;24;20461;-79
2023/08/27 10:43:11;;;;;;;5.10;2.40;;;;;;;23.80;46.97;100438.59;5986996;23;20439;-79
2023/08/27 10:45:47;;;;;;;3.33;3.00;;;;;;;23.71;45.93;100423.84;5993304;24;20507;-80
2023/08/27 10:48:30;;;;;;;3.83;3.10;;;;;;;23.43;45.77;100419.25;5987161;24;20406;-80
2023/08/27 10:51:27;;;;;;;3.47;3.17;;;;;;;23.64;46.62;100422.56;5998284;23;20384;-82
2023/08/27 10:54:01;;;;;;;4.10;3.40;;;;;;;23.77;46.64;100430.91;5995522;24;20408;-79
2023/08/27 11:00:14;;;;;;;6.40;3.27;;;;;;;23.97;45.16;100420.63;6056930;23;20390;-80
2023/08/27 11:03:16;;;;;;;4.20;3.40;;;;;;;23.91;45.73;100397.81;6028193;23;20448;-80
2023/08/27 11:05:47;;;;;;;6.57;2.70;;;;;;;23.72;46.56;100392.28;6028799;23;20446;-82
2023/08/27 11:08:33;;;;;;;4.00;3.40;;;;;;;24.31;45.86;100401.81;6028988;23;20501;-82
2023/08/27 11:11:12;;;;;;;3.50;3.20;;;;;;;23.77;46.08;100396.91;6024514;23;20466;-80
2023/08/27 11:13:44;;;;;;;6.50;3.17;;;;;;;23.39;47.17;100398.88;6056269;23;20661;-80
2023/08/27 11:16:16;;;;;;;4.23;2.90;;;;;;;23.42;47.24;100397.47;6028640;23;20442;-81
2023/08/27 11:19:29;;;;;;;5.33;3.37;;;;;;;23.80;47.82;100405.44;6030395;23;20465;-81
2023/08/27 11:22:07;;;;;;;4.93;3.30;;;;;;;24.06;46.04;100419.63;6030006;23;20467;-81
2023/08/27 11:24:43;;;;;;;3.93;3.30;;;;;;;23.92;46.02;100420.72;6025689;23;20421;-82
2023/08/27 11:27:17;;;;;;;4.30;2.47;;;;;;;24.13;44.42;100419.25;6024010;23;20415;-80
2023/08/27 11:29:49;;;;;;;6.60;3.90;;;;;;;23.80;45.41;100416.50;6021122;23;20502;-81
2023/08/27 11:32:20;;;;;;;5.50;3.20;;;;;;;23.49;46.03;100401.50;6018607;23;20474;-79
2023/08/27 11:34:54;;;;;;;4.00;3.23;;;;;;;23.36;47.26;100374.63;6042319;23;20401;-80
2023/08/27 11:37:32;;;;;;;4.57;3.13;;;;;;;23.20;46.65;100368.50;6018836;23;20469;-81
2023/08/27 11:40:02;;;;;;;3.70;2.90;;;;;;;23.15;47.78;100381.56;6017211;23;20422;-80
2023/08/27 11:42:32;;;;;;;6.63;3.40;;;;;;;23.29;47.56;100371.41;6017136;23;20442;-80
2023/08/27 11:45:01;;;;;;;6.37;3.73;;;;;;;23.40;47.69;100378.44;6017726;23;20427;-80
2023/08/27 11:47:34;;;;;;;6.03;3.13;;;;;;;23.37;47.49;100384.56;6018443;23;20871;-80
2023/08/27 11:50:09;;;;;;;4.83;3.50;;;;;;;23.02;47.81;100376.78;6016750;23;20450;-80
2023/08/27 11:52:40;;;;;;;5.30;3.73;;;;;;;22.86;48.84;100368.72;6017743;23;20480;-79
2023/08/27 11:55:10;;;;;;;8.20;3.07;;;;;;;22.85;49.09;100367.06;6022328;23;20428;-80
2023/08/27 11:57:40;;;;;;;5.00;3.17;;;;;;;22.83;48.92;100368.50;6026462;23;20429;-80
2023/08/27 12:00:12;;;;;;;5.67;3.50;;;;;;;22.55;48.96;100356.41;6025674;23;20412;-81
2023/08/27 12:02:43;;;;;;;6.83;3.40;;;;;;;22.54;49.89;100361.09;6028628;23;20456;-80
2023/08/27 12:05:18;;;;;;;13.10;4.87;;;;;;;22.86;50.50;100363.19;6029160;23;20508;-80
2023/08/27 12:07:47;;;;;;;7.30;3.90;;;;;;;23.15;49.91;100362.25;6033088;23;20425;-82
2023/08/27 12:10:21;;;;;;;3.60;2.93;;;;;;;23.16;48.47;100361.94;6037700;23;20421;-81
2023/08/27 12:12:51;;;;;;;7.43;3.57;;;;;;;23.36;48.52;100369.13;6059677;23;20409;-81
2023/08/27 12:15:29;;;;;;;6.10;3.47;;;;;;;23.44;48.33;100356.56;6032018;23;20450;-79
2023/08/27 12:18:00;;;;;;;4.40;3.60;;;;;;;23.59;48.10;100353.59;6033033;23;20416;-81